createdAt,value
2019-04-11T00:02:17.611Z,15.70
2019-04-11T00:04:48.515Z,13.70
2019-04-11T00:07:20.417Z,12.33
2019-04-11T00:09:51.242Z,11.90
2019-04-11T00:12:22.229Z,14.23
2019-04-11T00:14:53.728Z,13.43
2019-04-11T00:17:24.419Z,11.70
2019-04-11T00:19:55.816Z,12.47
2019-04-11T00:22:26.402Z,12.50
2019-04-11T00:24:56.907Z,14.83
2019-04-11T00:27:27.431Z,11.83
2019-04-11T00:29:57.943Z,16.17
2019-04-11T00:32:29.554Z,15.48
2019-04-11T00:35:01.518Z,12.28
2019-04-11T00:37:32.785Z,12.00
2019-04-11T00:40:03.893Z,11.38
2019-04-11T00:42:35.263Z,9.60
2019-04-11T00:45:07.590Z,12.75
2019-04-11T00:47:39.663Z,12.55
2019-04-11T00:50:10.866Z,13.75
2019-04-11T00:52:41.369Z,13.43
2019-04-11T00:55:12.018Z,10.45
2019-04-11T00:57:43.234Z,11.10
2019-04-11T01:00:15.174Z,11.78
2019-04-11T01:02:45.774Z,10.98
2019-04-11T01:05:17.213Z,12.82
2019-04-11T01:07:47.821Z,11.38
2019-04-11T01:10:18.380Z,10.72
2019-04-11T01:12:49.873Z,11.45
2019-04-11T01:15:23.703Z,10.88
2019-04-11T01:17:54.572Z,13.08
2019-04-11T01:20:25.063Z,12.83
2019-04-11T01:22:56.419Z,10.53
2019-04-11T01:25:27.073Z,13.53
2019-04-11T01:27:58.459Z,10.80
2019-04-11T01:30:38.969Z,10.43
2019-04-11T01:33:09.472Z,12.60
2019-04-11T01:35:39.940Z,9.73
2019-04-11T01:38:10.484Z,10.65
2019-04-11T01:40:40.877Z,9.03
2019-04-11T01:43:11.457Z,9.38
2019-04-11T01:45:43.341Z,12.23
2019-04-11T01:48:28.016Z,14.15
2019-04-11T01:50:59.090Z,10.53
2019-04-11T01:53:30.961Z,7.72
2019-04-11T01:56:01.677Z,8.73
2019-04-11T01:58:32.993Z,6.92
2019-04-11T02:01:14.511Z,11.50
2019-04-11T02:04:10.130Z,12.80
2019-04-11T02:06:40.599Z,8.98
2019-04-11T02:09:15.881Z,9.93
2019-04-11T02:11:46.458Z,7.57
2019-04-11T02:14:19.497Z,8.38
2019-04-11T02:16:49.628Z,7.45
2019-04-11T02:19:21.390Z,7.40
2019-04-11T02:21:53.771Z,7.92
2019-04-11T02:24:46.333Z,9.65
2019-04-11T02:27:21.146Z,7.58
2019-04-11T02:29:52.948Z,6.17
2019-04-11T02:32:27.034Z,5.50
2019-04-11T02:34:59.349Z,7.20
2019-04-11T02:37:31.515Z,7.20
2019-04-11T02:40:03.199Z,5.30
2019-04-11T02:42:35.129Z,5.60
2019-04-11T02:45:22.809Z,7.87
2019-04-11T02:47:41.580Z,7.13
2019-04-11T02:50:16.097Z,7.08
2019-04-11T02:52:44.458Z,5.95
2019-04-11T02:55:16.930Z,7.00
2019-04-11T02:57:48.325Z,9.05
2019-04-11T03:00:20.590Z,6.30
2019-04-11T03:02:53.116Z,6.72
2019-04-11T03:05:24.549Z,6.03
2019-04-11T03:07:56.451Z,8.05
2019-04-11T03:10:28.908Z,7.95
2019-04-11T03:13:00.860Z,6.37
2019-04-11T03:15:46.645Z,6.95
2019-04-11T03:18:09.223Z,9.60
2019-04-11T03:20:45.695Z,6.20
2019-04-11T03:23:14.361Z,7.45
2019-04-11T03:25:44.712Z,7.92
2019-04-11T03:28:21.375Z,8.05
2019-04-11T03:31:17.942Z,9.10
2019-04-11T03:36:53.959Z,6.08
2019-04-11T03:38:51.145Z,7.65
2019-04-11T03:41:16.167Z,5.95
2019-04-11T03:43:41.941Z,7.15
2019-04-11T03:46:19.947Z,6.70
2019-04-11T03:48:48.327Z,5.75
2019-04-11T03:51:08.827Z,5.95
2019-04-11T03:53:41.038Z,7.72
2019-04-11T03:56:12.686Z,6.67
2019-04-11T03:58:46.189Z,6.50
2019-04-11T04:01:18.397Z,6.37
2019-04-11T04:03:51.098Z,5.70
2019-04-11T04:06:23.159Z,11.00
2019-04-11T04:08:55.610Z,9.65
2019-04-11T04:11:29.887Z,8.90
2019-04-11T04:14:10.483Z,8.35
2019-04-11T04:17:03.815Z,7.60
2019-04-11T04:19:40.981Z,11.15
2019-04-11T04:22:24.746Z,7.15
2019-04-11T04:24:56.060Z,12.43
2019-04-11T04:27:27.988Z,11.85
2019-04-11T04:30:02.193Z,11.67
2019-04-11T04:32:32.385Z,13.93
2019-04-11T04:35:04.996Z,13.80
2019-04-11T04:37:38.631Z,12.78
2019-04-11T04:40:29.602Z,14.83
2019-04-11T04:42:47.774Z,13.98
2019-04-11T04:45:16.334Z,13.08
2019-04-11T04:47:53.864Z,11.48
2019-04-11T04:50:20.059Z,13.62
2019-04-11T04:52:51.557Z,12.25
2019-04-11T04:55:23.550Z,14.23
2019-04-11T04:57:55.432Z,19.92
2019-04-11T05:00:28.030Z,9.40
2019-04-11T05:02:59.932Z,16.97
2019-04-11T05:05:30.967Z,14.47
2019-04-11T05:08:02.874Z,11.75
2019-04-11T05:10:33.594Z,8.50
2019-04-11T05:13:05.560Z,8.35
2019-04-11T05:15:36.591Z,15.72
2019-04-11T05:18:08.920Z,10.70
2019-04-11T05:20:39.359Z,13.90
2019-04-11T05:23:09.815Z,10.57
2019-04-11T05:25:40.462Z,10.50
2019-04-11T05:28:12.028Z,11.05
2019-04-11T05:30:42.841Z,8.75
2019-04-11T05:33:13.625Z,11.05
2019-04-11T05:35:44.142Z,12.98
2019-04-11T05:38:14.696Z,9.80
2019-04-11T05:40:46.147Z,8.25
2019-04-11T05:43:16.689Z,9.63
2019-04-11T05:45:50.521Z,8.43
2019-04-11T05:48:35.176Z,17.40
2019-04-11T05:51:06.623Z,8.37
2019-04-11T05:53:38.657Z,10.95
2019-04-11T05:59:09.448Z,10.10
2019-04-11T06:01:45.112Z,9.03
2019-04-11T06:04:27.209Z,8.85
2019-04-11T06:07:08.415Z,7.58
2019-04-11T06:09:41.652Z,9.63
2019-04-11T06:12:27.620Z,10.28
2019-04-11T06:15:08.353Z,6.62
2019-04-11T06:17:40.747Z,10.63
2019-04-11T06:20:29.919Z,8.88
2019-04-11T06:23:19.152Z,9.00
2019-04-11T06:26:14.698Z,11.28
2019-04-11T06:28:45.258Z,8.98
2019-04-11T06:31:33.872Z,7.90
2019-04-11T06:34:07.213Z,9.95
2019-04-11T06:37:15.032Z,11.68
2019-04-11T06:39:59.750Z,13.03
2019-04-11T06:42:45.619Z,13.95
2019-04-11T06:45:37.836Z,14.70
2019-04-11T06:48:30.127Z,9.60
2019-04-11T06:51:08.188Z,10.78
2019-04-11T06:53:42.230Z,10.88
2019-04-11T06:56:18.982Z,13.60
2019-04-11T06:58:56.737Z,10.38
2019-04-11T07:01:30.048Z,16.23
2019-04-11T07:04:07.160Z,10.35
2019-04-11T07:06:39.997Z,8.75
2019-04-11T07:09:29.038Z,8.50
2019-04-11T07:12:04.102Z,8.10
2019-04-11T07:14:40.259Z,12.58
2019-04-11T07:17:29.592Z,9.08
2019-04-11T07:20:29.239Z,11.28
2019-04-11T07:23:17.920Z,7.62
2019-04-11T07:26:02.861Z,10.80
2019-04-11T07:29:04.572Z,9.28
2019-04-11T07:31:57.394Z,8.08
2019-04-11T07:35:00.035Z,8.58
2019-04-11T07:37:49.155Z,10.30
2019-04-11T07:40:39.213Z,13.45
2019-04-11T07:43:29.100Z,8.77
2019-04-11T07:46:25.534Z,9.35
2019-04-11T07:49:10.051Z,8.85
2019-04-11T07:51:45.044Z,8.98
2019-04-11T07:54:20.462Z,9.98
2019-04-11T07:57:19.324Z,10.00
2019-04-11T08:00:36.592Z,8.80
2019-04-11T08:03:23.566Z,14.58
2019-04-11T08:06:20.022Z,11.05
2019-04-11T08:09:18.761Z,9.53
2019-04-11T08:12:00.321Z,8.85
2019-04-11T08:14:50.979Z,10.40
2019-04-11T08:17:38.507Z,10.70
2019-04-11T08:20:42.033Z,8.15
2019-04-11T08:23:13.713Z,9.60
2019-04-11T08:26:12.069Z,8.05
2019-04-11T08:28:44.037Z,6.78
2019-04-11T08:31:36.389Z,9.18
2019-04-11T08:34:08.077Z,7.40
2019-04-11T08:36:57.509Z,8.07
2019-04-11T08:39:33.215Z,6.10
2019-04-11T08:42:21.373Z,6.80
2019-04-11T08:44:52.278Z,5.77
2019-04-11T08:47:22.813Z,5.53
2019-04-11T08:49:56.977Z,8.58
2019-04-11T08:52:42.741Z,4.37
2019-04-11T08:55:49.758Z,5.00
2019-04-11T08:58:20.436Z,2.95
2019-04-11T09:01:00.686Z,3.45
2019-04-11T09:04:07.311Z,4.37
2019-04-11T09:06:38.878Z,2.90
2019-04-11T09:09:27.474Z,3.45
2019-04-11T09:12:04.448Z,3.45
2019-04-11T09:14:56.920Z,3.70
2019-04-11T09:17:34.466Z,2.70
2019-04-11T09:20:36.196Z,3.60
2019-04-11T09:23:11.726Z,3.45
2019-04-11T09:26:01.504Z,2.80
2019-04-11T09:28:38.162Z,2.60
2019-04-11T09:31:31.657Z,4.00
2019-04-11T09:34:28.032Z,5.78
2019-04-11T09:37:15.529Z,4.30
2019-04-11T09:40:23.939Z,5.70
2019-04-11T09:43:17.767Z,4.10
2019-04-11T09:46:16.614Z,3.33
2019-04-11T09:49:13.515Z,4.83
2019-04-11T09:51:58.429Z,3.40
2019-04-11T09:54:42.061Z,5.50
2019-04-11T09:57:18.553Z,4.47
2019-04-11T10:00:26.864Z,3.08
2019-04-11T10:03:03.787Z,4.03
2019-04-11T10:05:48.639Z,3.00
2019-04-11T10:08:35.029Z,4.22
2019-04-11T10:11:24.139Z,2.75
2019-04-11T10:14:01.718Z,3.50
2019-04-11T10:16:50.591Z,3.27
2019-04-11T10:19:34.303Z,3.35
2019-04-11T10:22:13.225Z,10.08
2019-04-11T10:25:03.146Z,2.63
2019-04-11T10:27:53.092Z,4.00
2019-04-11T10:30:42.001Z,3.80
2019-04-11T10:33:26.675Z,4.67
2019-04-11T10:36:12.550Z,3.77
2019-04-11T10:38:43.127Z,3.40
2019-04-11T10:41:32.568Z,2.80
2019-04-11T10:44:03.735Z,2.70
2019-04-11T10:46:51.516Z,2.45
2019-04-11T10:49:42.088Z,2.47
2019-04-11T10:52:28.670Z,3.27
2019-04-11T10:55:18.041Z,5.90
2019-04-11T10:58:10.860Z,2.22
2019-04-11T11:00:59.601Z,2.95
2019-04-11T11:03:39.029Z,3.10
2019-04-11T11:06:09.487Z,2.70
2019-04-11T11:08:50.023Z,2.20
2019-04-11T11:11:28.396Z,3.42
2019-04-11T11:14:24.834Z,2.20
2019-04-11T11:17:17.531Z,4.08
2019-04-11T11:20:27.820Z,4.95
2019-04-11T11:23:16.163Z,2.80
2019-04-11T11:25:52.893Z,3.00
2019-04-11T11:28:25.892Z,3.10
2019-04-11T11:31:05.927Z,3.08
2019-04-11T11:33:36.495Z,3.37
2019-04-11T11:36:25.721Z,2.50
2019-04-11T11:39:19.352Z,4.55
2019-04-11T11:42:08.287Z,3.72
2019-04-11T11:44:53.017Z,4.03
2019-04-11T11:47:41.994Z,3.50
2019-04-11T11:50:18.750Z,3.07
2019-04-11T11:53:22.691Z,2.53
2019-04-11T11:55:53.997Z,3.80
2019-04-11T11:58:59.931Z,2.30
2019-04-11T12:01:31.575Z,3.40
2019-04-11T12:04:23.855Z,2.98
2019-04-11T12:06:58.888Z,6.60
2019-04-11T12:09:46.729Z,4.30
2019-04-11T12:12:21.935Z,2.50
2019-04-11T12:15:14.197Z,2.02
2019-04-11T12:18:01.858Z,2.02
2019-04-11T12:20:39.467Z,2.83
2019-04-11T12:23:24.413Z,5.83
2019-04-11T12:25:55.740Z,2.70
2019-04-11T12:28:57.587Z,2.65
2019-04-11T12:31:28.746Z,3.05
2019-04-11T12:34:19.140Z,2.25
2019-04-11T12:36:53.330Z,5.12
2019-04-11T12:39:42.551Z,4.03
2019-04-11T12:42:22.345Z,3.83
2019-04-11T12:45:27.275Z,2.85
2019-04-11T12:47:59.895Z,2.17
2019-04-11T12:50:48.316Z,6.55
2019-04-11T12:53:20.621Z,2.17
2019-04-11T12:56:15.877Z,3.90
2019-04-11T12:58:52.373Z,3.40
2019-04-11T13:01:44.814Z,3.10
2019-04-11T13:04:30.029Z,3.52
2019-04-11T13:07:22.506Z,2.10
2019-04-11T13:09:58.949Z,4.10
2019-04-11T13:12:54.497Z,3.02
2019-04-11T13:15:32.869Z,2.45
2019-04-11T13:18:40.404Z,6.37
2019-04-11T13:21:14.438Z,4.65
2019-04-11T13:24:09.681Z,2.98
2019-04-11T13:27:05.847Z,2.98
2019-04-11T13:30:04.716Z,4.50
2019-04-11T13:32:50.814Z,4.17
2019-04-11T13:35:28.247Z,3.37
2019-04-11T13:38:13.417Z,2.10
2019-04-11T13:41:02.883Z,3.27
2019-04-11T13:43:45.421Z,3.37
2019-04-11T13:46:47.039Z,2.90
2019-04-11T13:49:35.620Z,2.90
2019-04-11T13:52:28.388Z,3.53
2019-04-11T13:55:25.435Z,2.87
2019-04-11T13:58:14.864Z,3.27
2019-04-11T14:00:47.571Z,3.30
2019-04-11T14:03:45.351Z,2.35
2019-04-11T14:06:33.474Z,2.72
2019-04-11T14:09:24.403Z,3.37
2019-04-11T14:11:59.639Z,3.25
2019-04-11T14:14:38.112Z,3.65
2019-04-11T14:17:36.815Z,3.90
2019-04-11T14:20:34.706Z,3.00
2019-04-11T14:23:28.467Z,2.50
2019-04-11T14:26:17.875Z,4.22
2019-04-11T14:28:52.252Z,3.30
2019-04-11T14:31:48.264Z,2.58
2019-04-11T14:34:50.010Z,2.60
2019-04-11T14:37:38.535Z,2.87
2019-04-11T14:40:14.983Z,4.60
2019-04-11T14:43:13.675Z,3.00
2019-04-11T14:46:22.953Z,3.70
2019-04-11T14:48:56.387Z,3.45
2019-04-11T14:51:46.307Z,3.27
2019-04-11T14:54:19.859Z,3.70
2019-04-11T14:56:59.615Z,2.60
2019-04-11T14:59:35.241Z,4.45
2019-04-11T15:02:11.297Z,2.95
2019-04-11T15:04:56.286Z,2.93
2019-04-11T15:07:27.230Z,2.90
2019-04-11T15:10:19.663Z,5.00
2019-04-11T15:12:50.188Z,2.87
2019-04-11T15:15:30.658Z,2.30
2019-04-11T15:18:03.254Z,2.55
2019-04-11T15:21:01.752Z,3.00
2019-04-11T15:23:37.555Z,2.22
2019-04-11T15:26:26.489Z,2.30
2019-04-11T15:29:17.598Z,7.90
2019-04-11T15:32:13.139Z,2.72
2019-04-11T15:34:49.021Z,4.05
2019-04-11T15:37:47.310Z,4.28
2019-04-11T15:40:27.091Z,2.30
2019-04-11T15:43:25.435Z,2.95
2019-04-11T15:46:08.359Z,2.30
2019-04-11T15:49:00.779Z,2.70
2019-04-11T15:51:36.976Z,2.20
2019-04-11T15:54:26.576Z,2.58
2019-04-11T15:57:01.118Z,2.20
2019-04-11T15:59:56.605Z,5.22
2019-04-11T16:03:01.183Z,2.40
2019-04-11T16:06:02.274Z,2.15
2019-04-11T16:08:39.451Z,2.00
2019-04-11T16:11:19.580Z,4.40
2019-04-11T16:14:10.934Z,2.22
2019-04-11T16:17:07.256Z,2.70
2019-04-11T16:19:56.834Z,2.67
2019-04-11T16:22:45.213Z,4.58
2019-04-11T16:25:18.174Z,4.95
2019-04-11T16:28:08.129Z,5.22
2019-04-11T16:30:44.856Z,3.20
2019-04-11T16:33:40.733Z,4.30
2019-04-11T16:36:29.138Z,2.60
2019-04-11T16:39:19.931Z,2.60
2019-04-11T16:41:56.486Z,2.77
2019-04-11T16:44:40.394Z,4.30
2019-04-11T16:47:29.950Z,2.53
2019-04-11T16:50:00.625Z,2.92
2019-04-11T16:52:31.411Z,6.53
2019-04-11T16:55:02.024Z,2.90
2019-04-11T16:57:32.507Z,2.40
2019-04-11T17:00:03.693Z,2.50
2019-04-11T17:02:34.297Z,2.27
2019-04-11T17:05:08.787Z,2.60
2019-04-11T17:07:57.268Z,3.00
2019-04-11T17:10:45.444Z,4.60
2019-04-11T17:13:16.033Z,3.58
2019-04-11T17:15:46.568Z,4.53
2019-04-11T17:18:18.984Z,5.47
2019-04-11T17:20:49.328Z,3.47
2019-04-11T17:23:19.823Z,3.58
2019-04-11T17:25:53.083Z,5.20
2019-04-11T17:28:23.724Z,3.40
2019-04-11T17:30:55.782Z,3.42
2019-04-11T17:33:28.530Z,4.95
2019-04-11T17:36:01.805Z,3.17
2019-04-11T17:38:31.503Z,4.20
2019-04-11T17:41:02.110Z,4.17
2019-04-11T17:43:32.669Z,3.75
2019-04-11T17:46:03.299Z,4.60
2019-04-11T17:48:33.825Z,3.35
2019-04-11T17:51:05.647Z,3.60
2019-04-11T17:53:36.355Z,4.72
2019-04-11T17:56:06.887Z,5.53
2019-04-11T17:58:37.502Z,7.50
2019-04-11T18:01:08.892Z,4.47
2019-04-11T18:03:41.824Z,6.08
2019-04-11T18:06:12.235Z,4.10
2019-04-11T18:08:46.747Z,7.67
2019-04-11T18:11:17.392Z,3.77
2019-04-11T18:13:55.424Z,4.80
2019-04-11T18:16:26.239Z,4.50
2019-04-11T18:18:56.887Z,3.50
2019-04-11T18:21:29.878Z,3.75
2019-04-11T18:24:00.617Z,4.22
2019-04-11T18:26:31.115Z,3.67
2019-04-11T18:29:01.743Z,4.08
2019-04-11T18:31:32.331Z,3.33
2019-04-11T18:34:02.862Z,3.20
2019-04-11T18:36:33.463Z,3.00
2019-04-11T18:39:06.000Z,4.20
2019-04-11T18:41:36.853Z,4.40
2019-04-11T18:44:07.614Z,3.55
2019-04-11T18:46:39.441Z,3.37
2019-04-11T18:49:10.048Z,5.20
2019-04-11T18:51:40.597Z,5.00
2019-04-11T18:54:11.211Z,4.60
2019-04-11T18:59:34.007Z,3.33
2019-04-11T19:02:05.173Z,5.00
2019-04-11T19:04:35.735Z,5.92
2019-04-11T19:07:06.652Z,4.62
2019-04-11T19:09:37.402Z,3.98
2019-04-11T19:12:09.219Z,3.70
2019-04-11T19:14:40.003Z,6.28
2019-04-11T19:17:10.549Z,3.65
2019-04-11T19:19:41.177Z,6.20
2019-04-11T19:22:11.762Z,3.80
2019-04-11T19:24:42.487Z,5.43
2019-04-11T19:27:13.997Z,4.87
2019-04-11T19:29:45.451Z,3.73
2019-04-11T19:32:16.331Z,8.88
2019-04-11T19:34:47.148Z,4.20
2019-04-11T19:37:17.757Z,8.93
2019-04-11T19:39:48.391Z,5.67
2019-04-11T19:42:19.813Z,4.90
2019-04-11T19:44:50.549Z,5.62
2019-04-11T19:47:21.713Z,5.78
2019-04-11T19:49:52.883Z,6.03
2019-04-11T19:52:23.422Z,5.50
2019-04-11T19:54:55.659Z,4.03
2019-04-11T19:57:26.213Z,4.33
2019-04-11T19:59:56.703Z,5.53
2019-04-11T20:02:27.301Z,4.10
2019-04-11T20:04:58.430Z,4.85
2019-04-11T20:07:29.223Z,4.37
2019-04-11T20:10:00.889Z,5.58
2019-04-11T20:12:32.109Z,4.20
2019-04-11T20:15:04.656Z,4.33
2019-04-11T20:17:44.391Z,5.75
2019-04-11T20:20:08.025Z,4.65
2019-04-11T20:22:39.807Z,4.25
2019-04-11T20:25:10.878Z,4.40
2019-04-11T20:27:41.387Z,4.47
2019-04-11T20:30:12.627Z,6.28
2019-04-11T20:32:43.197Z,7.13
2019-04-11T20:35:13.779Z,5.10
2019-04-11T20:37:45.247Z,5.00
2019-04-11T20:40:18.161Z,4.00
2019-04-11T20:42:48.084Z,6.30
2019-04-11T20:45:19.155Z,7.50
2019-04-11T20:47:49.689Z,4.05
2019-04-11T20:50:20.137Z,4.05
2019-04-11T20:52:50.846Z,4.60
2019-04-11T20:55:21.302Z,5.37
2019-04-11T20:57:51.767Z,4.23
2019-04-11T21:00:22.763Z,5.25
2019-04-11T21:02:53.343Z,5.28
2019-04-11T21:05:23.958Z,6.93
2019-04-11T21:07:54.365Z,4.33
2019-04-11T21:10:24.881Z,5.10
2019-04-11T21:12:55.410Z,4.17
2019-04-11T21:15:25.960Z,4.40
2019-04-11T21:17:56.749Z,5.62
2019-04-11T21:20:27.419Z,6.73
2019-04-11T21:22:57.949Z,4.97
2019-04-11T21:25:29.140Z,5.83
2019-04-11T21:28:00.035Z,4.62
2019-04-11T21:30:31.232Z,4.47
2019-04-11T21:33:03.770Z,8.35
2019-04-11T21:35:34.088Z,4.87
2019-04-11T21:38:04.607Z,5.70
2019-04-11T21:40:35.979Z,5.70
2019-04-11T21:43:07.325Z,4.70
2019-04-11T21:45:37.802Z,4.92
2019-04-11T21:48:08.428Z,4.65
2019-04-11T21:50:40.578Z,5.67
2019-04-11T21:53:13.837Z,4.85
2019-04-11T21:55:47.186Z,5.08
2019-04-11T21:58:19.294Z,4.85
2019-04-11T22:00:54.361Z,5.78
2019-04-11T22:03:24.837Z,4.65
2019-04-11T22:05:55.338Z,7.70
2019-04-11T22:08:25.875Z,5.62
2019-04-11T22:10:56.344Z,5.53
2019-04-11T22:13:26.740Z,5.85
2019-04-11T22:15:57.247Z,7.20
2019-04-11T22:18:27.929Z,6.58
2019-04-11T22:20:58.408Z,6.60
2019-04-11T22:23:28.918Z,5.28
2019-04-11T22:25:59.384Z,6.45
2019-04-11T22:28:29.931Z,5.00
2019-04-11T22:31:00.526Z,5.92
2019-04-11T22:33:38.476Z,6.27
2019-04-11T22:36:10.008Z,4.83
2019-04-11T22:38:40.481Z,6.50
2019-04-11T22:41:10.960Z,9.05
2019-04-11T22:43:41.533Z,6.03
2019-04-11T22:46:20.244Z,10.60
2019-04-11T22:48:44.254Z,6.77
2019-04-11T22:51:14.843Z,6.40
2019-04-11T22:53:45.358Z,6.40
2019-04-11T22:56:15.898Z,7.67
2019-04-11T22:58:46.442Z,6.70
2019-04-11T23:01:17.227Z,6.55
2019-04-11T23:03:51.730Z,6.40
2019-04-11T23:06:22.252Z,6.92
2019-04-11T23:08:52.649Z,7.35
2019-04-11T23:11:23.299Z,5.65
2019-04-11T23:13:53.818Z,6.60
2019-04-11T23:16:24.423Z,7.60
2019-04-11T23:18:54.982Z,6.47
2019-04-11T23:21:25.488Z,7.03
2019-04-11T23:23:56.066Z,7.42
2019-04-11T23:26:26.559Z,7.47
2019-04-11T23:28:57.108Z,9.25
2019-04-11T23:31:27.650Z,9.40
2019-04-11T23:33:58.219Z,8.65
2019-04-11T23:36:28.729Z,6.85
2019-04-11T23:38:59.279Z,10.75
2019-04-11T23:41:29.881Z,8.25
2019-04-11T23:44:00.355Z,8.88
2019-04-11T23:46:30.851Z,7.72
2019-04-11T23:49:01.427Z,7.65
2019-04-11T23:51:32.024Z,6.97
2019-04-11T23:54:02.557Z,8.17
2019-04-11T23:56:33.035Z,8.25
2019-04-11T23:59:03.536Z,9.83
